createdAt,value
2018-04-14T00:00:55.599Z,92.62
2018-04-14T00:03:23.906Z,93.16
2018-04-14T00:05:52.350Z,93.39
2018-04-14T00:08:20.747Z,93.43
2018-04-14T00:10:49.067Z,93.42
2018-04-14T00:13:17.378Z,93.82
2018-04-14T00:15:45.709Z,93.56
2018-04-14T00:18:14.028Z,93.70
2018-04-14T00:20:42.978Z,93.55
2018-04-14T00:23:11.310Z,93.23
2018-04-14T00:25:39.639Z,93.42
2018-04-14T00:28:08.004Z,93.19
2018-04-14T00:30:36.330Z,92.77
2018-04-14T00:33:04.690Z,92.78
2018-04-14T00:35:33.012Z,93.10
2018-04-14T00:38:01.351Z,92.94
2018-04-14T00:40:29.744Z,92.28
2018-04-14T00:42:58.059Z,92.09
2018-04-14T00:45:26.444Z,91.97
2018-04-14T00:47:54.765Z,91.86
2018-04-14T00:50:23.118Z,92.27
2018-04-14T00:52:51.464Z,92.33
2018-04-14T00:55:19.791Z,92.32
2018-04-14T00:57:48.113Z,92.20
2018-04-14T01:00:16.440Z,92.21
2018-04-14T01:02:44.805Z,92.51
2018-04-14T01:05:13.131Z,92.59
2018-04-14T01:07:41.573Z,92.40
2018-04-14T01:10:09.911Z,92.40
2018-04-14T01:12:38.253Z,92.30
2018-04-14T01:15:06.749Z,92.23
2018-04-14T01:17:35.100Z,91.75
2018-04-14T01:20:03.727Z,91.33
2018-04-14T01:22:32.127Z,91.29
2018-04-14T01:25:00.437Z,90.98
2018-04-14T01:27:28.771Z,91.05
2018-04-14T01:29:57.090Z,89.88
2018-04-14T01:32:25.490Z,89.50
2018-04-14T01:34:53.812Z,89.06
2018-04-14T01:37:22.156Z,89.60
2018-04-14T01:39:50.509Z,88.67
2018-04-14T01:42:18.842Z,89.12
2018-04-14T01:44:47.195Z,89.00
2018-04-14T01:47:15.532Z,89.45
2018-04-14T01:49:43.891Z,89.85
2018-04-14T01:52:12.234Z,90.49
2018-04-14T01:54:40.615Z,89.47
2018-04-14T01:57:08.963Z,89.64
2018-04-14T01:59:37.300Z,89.47
2018-04-14T02:02:05.692Z,89.31
2018-04-14T02:04:34.083Z,89.07
2018-04-14T02:07:02.412Z,89.38
2018-04-14T02:09:30.762Z,88.84
2018-04-14T02:11:59.102Z,89.19
2018-04-14T02:14:27.427Z,89.56
2018-04-14T02:16:56.111Z,89.91
2018-04-14T02:19:24.531Z,89.56
2018-04-14T02:21:52.842Z,89.28
2018-04-14T02:24:21.227Z,89.50
2018-04-14T02:26:49.565Z,89.85
2018-04-14T02:29:17.933Z,89.86
2018-04-14T02:31:46.279Z,90.02
2018-04-14T02:34:14.693Z,90.29
2018-04-14T02:36:43.024Z,90.50
2018-04-14T02:39:11.355Z,91.01
2018-04-14T02:41:39.692Z,91.42
2018-04-14T02:44:08.048Z,91.87
2018-04-14T02:46:36.439Z,92.02
2018-04-14T02:49:04.831Z,92.38
2018-04-14T02:51:33.169Z,92.53
2018-04-14T02:54:01.513Z,91.78
2018-04-14T02:56:29.850Z,91.93
2018-04-14T02:58:58.162Z,91.75
2018-04-14T03:01:26.495Z,92.55
2018-04-14T03:03:54.798Z,92.10
2018-04-14T03:06:23.196Z,92.16
2018-04-14T03:08:51.513Z,92.60
2018-04-14T03:11:19.972Z,92.36
2018-04-14T03:13:48.305Z,92.44
2018-04-14T03:16:16.609Z,91.36
2018-04-14T03:18:44.939Z,91.59
2018-04-14T03:21:13.270Z,91.31
2018-04-14T03:23:41.594Z,91.08
2018-04-14T03:26:09.985Z,91.53
2018-04-14T03:28:38.421Z,91.35
2018-04-14T03:31:06.751Z,91.59
2018-04-14T03:33:35.190Z,91.55
2018-04-14T03:36:03.593Z,90.13
2018-04-14T03:38:32.181Z,90.57
2018-04-14T03:41:00.523Z,90.10
2018-04-14T03:43:28.859Z,89.98
2018-04-14T03:45:57.191Z,89.75
2018-04-14T03:48:25.544Z,89.33
2018-04-14T03:50:53.857Z,88.99
2018-04-14T03:53:22.217Z,88.41
2018-04-14T03:55:50.620Z,89.92
2018-04-14T03:58:19.027Z,90.44
2018-04-14T04:00:47.362Z,90.37
2018-04-14T04:03:15.787Z,90.75
2018-04-14T04:05:44.161Z,91.00
2018-04-14T04:08:12.750Z,90.58
2018-04-14T04:10:41.075Z,90.43
2018-04-14T04:13:09.426Z,89.59
2018-04-14T04:15:37.887Z,90.08
2018-04-14T04:18:06.329Z,89.32
2018-04-14T04:20:51.558Z,89.87
2018-04-14T04:23:31.631Z,90.24
2018-04-14T04:26:00.928Z,90.41
2018-04-14T04:28:29.321Z,89.43
2018-04-14T04:30:57.709Z,88.99
2018-04-14T04:33:26.051Z,89.54
2018-04-14T04:35:54.731Z,90.09
2018-04-14T04:38:23.085Z,90.34
2018-04-14T04:40:51.420Z,90.13
2018-04-14T04:43:19.739Z,89.94
2018-04-14T04:48:34.072Z,89.36
2018-04-14T04:51:02.410Z,89.88
2018-04-14T04:53:30.717Z,90.21
2018-04-14T04:55:59.050Z,90.71
2018-04-14T04:58:27.455Z,91.08
2018-04-14T05:00:55.787Z,91.00
2018-04-14T05:03:24.110Z,92.01
2018-04-14T05:05:52.486Z,90.82
2018-04-14T05:08:20.799Z,90.71
2018-04-14T05:10:49.613Z,91.13
2018-04-14T05:13:18.093Z,90.85
2018-04-14T05:15:46.448Z,90.91
2018-04-14T05:18:14.844Z,90.09
2018-04-14T05:20:43.183Z,89.65
2018-04-14T05:23:11.511Z,90.17
2018-04-14T05:25:39.905Z,91.59
2018-04-14T05:28:08.224Z,90.28
2018-04-14T05:30:36.538Z,87.43
2018-04-14T05:33:04.888Z,87.37
2018-04-14T05:35:33.240Z,85.49
2018-04-14T05:38:01.561Z,86.95
2018-04-14T05:40:29.988Z,87.07
2018-04-14T05:42:58.353Z,86.60
2018-04-14T05:45:26.652Z,85.75
2018-04-14T05:47:55.019Z,87.45
2018-04-14T05:50:23.346Z,87.55
2018-04-14T05:52:51.710Z,88.15
2018-04-14T05:55:20.042Z,86.24
2018-04-14T05:57:48.400Z,86.27
2018-04-14T06:00:16.720Z,86.42
2018-04-14T06:02:45.056Z,85.47
2018-04-14T06:05:13.411Z,85.70
2018-04-14T06:07:41.853Z,88.08
2018-04-14T06:10:10.207Z,86.08
2018-04-14T06:12:38.523Z,85.05
2018-04-14T06:15:06.871Z,86.18
2018-04-14T06:17:35.221Z,85.55
2018-04-14T06:20:03.530Z,84.75
2018-04-14T06:22:31.966Z,87.21
2018-04-14T06:25:00.336Z,87.17
2018-04-14T06:27:28.681Z,81.49
2018-04-14T06:29:57.036Z,80.18
2018-04-14T06:32:25.411Z,80.07
2018-04-14T06:34:53.822Z,79.26
2018-04-14T06:37:22.219Z,79.71
2018-04-14T06:39:50.526Z,79.62
2018-04-14T06:42:18.885Z,78.00
2018-04-14T06:44:47.208Z,76.20
2018-04-14T06:47:15.537Z,75.60
2018-04-14T06:49:43.900Z,76.52
2018-04-14T06:52:12.224Z,76.51
2018-04-14T06:54:40.541Z,74.32
2018-04-14T06:57:08.937Z,76.23
2018-04-14T06:59:37.330Z,75.00
2018-04-14T07:02:05.687Z,73.79
2018-04-14T07:04:34.036Z,74.35
2018-04-14T07:07:02.417Z,74.63
2018-04-14T07:09:30.749Z,71.99
2018-04-14T07:11:59.090Z,73.75
2018-04-14T07:14:27.428Z,72.53
2018-04-14T07:16:56.232Z,72.57
2018-04-14T07:19:24.543Z,70.17
2018-04-14T07:21:52.870Z,70.41
2018-04-14T07:24:21.211Z,68.79
2018-04-14T07:26:49.601Z,69.51
2018-04-14T07:29:17.899Z,70.79
2018-04-14T07:31:46.249Z,69.59
2018-04-14T07:34:14.596Z,69.07
2018-04-14T07:36:42.958Z,63.52
2018-04-14T07:39:11.398Z,59.64
2018-04-14T07:41:39.745Z,58.64
2018-04-14T07:44:08.181Z,54.62
2018-04-14T07:46:36.531Z,55.25
2018-04-14T07:49:04.883Z,54.85
2018-04-14T07:51:33.271Z,55.86
2018-04-14T07:54:01.607Z,56.84
2018-04-14T07:56:29.956Z,54.24
2018-04-14T07:58:58.367Z,55.97
2018-04-14T08:01:26.688Z,56.59
2018-04-14T08:03:55.059Z,56.93
2018-04-14T08:06:23.442Z,56.72
2018-04-14T08:08:51.820Z,54.92
2018-04-14T08:11:20.169Z,56.49
2018-04-14T08:13:48.549Z,53.64
2018-04-14T08:16:16.910Z,54.00
2018-04-14T08:18:45.282Z,52.61
2018-04-14T08:21:13.622Z,51.22
2018-04-14T08:23:41.976Z,48.99
2018-04-14T08:26:10.308Z,52.78
2018-04-14T08:28:38.696Z,54.17
2018-04-14T08:31:07.064Z,54.03
2018-04-14T08:33:35.378Z,54.84
2018-04-14T08:36:03.722Z,56.23
2018-04-14T08:38:32.084Z,57.84
2018-04-14T08:41:00.740Z,55.51
2018-04-14T08:43:29.108Z,56.17
2018-04-14T08:45:57.529Z,55.23
2018-04-14T08:48:25.861Z,48.60
2018-04-14T08:50:54.326Z,48.03
2018-04-14T08:53:22.640Z,43.96
2018-04-14T08:55:51.060Z,43.71
2018-04-14T08:58:19.408Z,42.77
2018-04-14T09:00:47.740Z,39.96
2018-04-14T09:03:16.111Z,41.67
2018-04-14T09:05:44.584Z,39.31
2018-04-14T09:08:12.922Z,38.43
2018-04-14T09:10:41.267Z,40.80
2018-04-14T09:13:09.767Z,38.38
2018-04-14T09:15:38.088Z,37.76
2018-04-14T09:18:06.785Z,38.38
2018-04-14T09:20:35.134Z,39.80
2018-04-14T09:23:03.514Z,40.70
2018-04-14T09:25:31.888Z,39.25
2018-04-14T09:28:00.366Z,42.82
2018-04-14T09:30:28.729Z,39.30
2018-04-14T09:32:57.052Z,38.42
2018-04-14T09:35:25.448Z,39.43
2018-04-14T09:37:53.829Z,38.53
2018-04-14T09:40:22.237Z,39.10
2018-04-14T09:42:50.606Z,36.73
2018-04-14T09:45:19.068Z,36.81
2018-04-14T09:47:47.474Z,40.98
2018-04-14T09:50:15.806Z,39.29
2018-04-14T09:52:44.262Z,39.29
2018-04-14T09:55:12.992Z,38.89
2018-04-14T09:57:41.326Z,37.83
2018-04-14T10:00:09.649Z,38.08
2018-04-14T10:02:43.550Z,38.93
2018-04-14T10:05:11.905Z,38.68
2018-04-14T10:07:40.242Z,38.75
2018-04-14T10:10:08.604Z,37.83
2018-04-14T10:12:36.936Z,38.69
2018-04-14T10:15:05.268Z,38.16
2018-04-14T10:17:33.657Z,36.80
2018-04-14T10:20:01.998Z,37.24
2018-04-14T10:22:30.342Z,37.30
2018-04-14T10:24:58.676Z,37.64
2018-04-14T10:27:27.003Z,36.22
2018-04-14T10:29:55.337Z,36.42
2018-04-14T10:32:23.792Z,36.21
2018-04-14T10:34:52.143Z,36.51
2018-04-14T10:37:20.499Z,36.96
2018-04-14T10:39:48.834Z,36.61
2018-04-14T10:42:17.179Z,36.76
2018-04-14T10:44:45.520Z,34.79
2018-04-14T10:47:13.833Z,34.53
2018-04-14T10:49:42.274Z,35.41
2018-04-14T10:52:10.629Z,33.78
2018-04-14T10:54:38.988Z,37.11
2018-04-14T10:57:07.421Z,33.26
2018-04-14T10:59:35.763Z,33.43
2018-04-14T11:02:04.211Z,32.82
2018-04-14T11:04:32.552Z,32.58
2018-04-14T11:07:00.893Z,32.47
2018-04-14T11:09:29.289Z,33.06
2018-04-14T11:11:58.210Z,33.47
2018-04-14T11:14:26.589Z,32.75
2018-04-14T11:16:54.989Z,34.56
2018-04-14T11:19:23.409Z,32.83
2018-04-14T11:21:51.747Z,32.49
2018-04-14T11:24:20.179Z,33.05
2018-04-14T11:26:48.654Z,33.05
2018-04-14T11:29:17.044Z,33.70
2018-04-14T11:31:45.371Z,34.52
2018-04-14T11:34:14.526Z,35.16
2018-04-14T11:36:42.855Z,36.08
2018-04-14T11:39:11.166Z,34.88
2018-04-14T11:41:39.613Z,35.76
2018-04-14T11:44:07.949Z,34.96
2018-04-14T11:46:36.297Z,33.91
2018-04-14T11:49:04.683Z,33.83
2018-04-14T11:51:33.024Z,32.44
2018-04-14T11:54:01.367Z,32.36
2018-04-14T11:56:29.704Z,33.23
2018-04-14T11:58:58.032Z,35.22
2018-04-14T12:01:26.431Z,37.03
2018-04-14T12:03:54.843Z,37.05
2018-04-14T12:06:23.151Z,35.15
2018-04-14T12:08:51.474Z,33.59
2018-04-14T12:11:19.865Z,34.74
2018-04-14T12:13:48.302Z,36.97
2018-04-14T12:16:16.666Z,36.17
2018-04-14T12:18:44.989Z,35.94
2018-04-14T12:21:13.381Z,35.87
2018-04-14T12:23:41.696Z,34.07
2018-04-14T12:26:10.008Z,34.59
2018-04-14T12:28:38.359Z,33.49
2018-04-14T12:31:06.665Z,32.36
2018-04-14T12:33:35.002Z,32.83
2018-04-14T12:36:03.335Z,31.33
2018-04-14T12:38:31.661Z,32.01
2018-04-14T12:40:59.987Z,30.16
2018-04-14T12:43:28.329Z,31.21
2018-04-14T12:45:56.690Z,31.34
2018-04-14T12:48:25.022Z,32.30
2018-04-14T12:50:53.375Z,30.42
2018-04-14T12:53:21.726Z,31.93
2018-04-14T12:55:50.192Z,31.21
2018-04-14T12:58:18.530Z,30.43
2018-04-14T13:00:46.883Z,30.03
2018-04-14T13:03:15.208Z,31.87
2018-04-14T13:05:43.537Z,30.69
2018-04-14T13:08:11.867Z,29.55
2018-04-14T13:10:40.790Z,30.28
2018-04-14T13:13:09.141Z,28.78
2018-04-14T13:15:37.521Z,30.41
2018-04-14T13:18:06.847Z,30.42
2018-04-14T13:20:35.217Z,29.28
2018-04-14T13:23:03.650Z,30.06
2018-04-14T13:25:31.999Z,31.66
2018-04-14T13:28:00.326Z,30.60
2018-04-14T13:30:28.679Z,30.09
2018-04-14T13:32:57.073Z,29.53
2018-04-14T13:35:25.447Z,29.74
2018-04-14T13:37:53.754Z,29.50
2018-04-14T13:40:22.111Z,29.36
2018-04-14T13:42:50.459Z,29.53
2018-04-14T13:45:18.845Z,30.13
2018-04-14T13:47:47.173Z,29.68
2018-04-14T13:50:15.647Z,28.67
2018-04-14T13:52:43.996Z,29.69
2018-04-14T13:55:12.409Z,29.42
2018-04-14T13:57:40.966Z,29.45
2018-04-14T14:00:09.292Z,30.63
2018-04-14T14:02:41.106Z,31.15
2018-04-14T14:05:09.537Z,31.56
2018-04-14T14:07:37.877Z,30.81
2018-04-14T14:10:06.194Z,31.65
2018-04-14T14:12:34.548Z,30.40
2018-04-14T14:15:02.889Z,30.55
2018-04-14T14:17:31.232Z,30.65
2018-04-14T14:19:59.557Z,30.49
2018-04-14T14:22:27.930Z,32.26
2018-04-14T14:24:56.249Z,30.72
2018-04-14T14:27:24.564Z,31.51
2018-04-14T14:29:52.886Z,29.92
2018-04-14T14:32:21.268Z,27.94
2018-04-14T14:34:49.726Z,28.61
2018-04-14T14:37:18.107Z,29.87
2018-04-14T14:39:46.451Z,29.63
2018-04-14T14:42:14.774Z,30.56
2018-04-14T14:44:43.142Z,31.86
2018-04-14T14:47:11.491Z,31.28
2018-04-14T14:49:39.821Z,30.80
2018-04-14T14:52:08.207Z,29.72
2018-04-14T14:54:36.601Z,29.80
2018-04-14T14:57:04.938Z,30.10
2018-04-14T14:59:33.295Z,30.06
2018-04-14T15:02:01.609Z,30.96
2018-04-14T15:04:29.951Z,30.79
2018-04-14T15:06:58.288Z,30.88
2018-04-14T15:09:26.608Z,31.35
2018-04-14T15:11:54.938Z,30.97
2018-04-14T15:14:23.606Z,31.14
2018-04-14T15:16:52.018Z,32.26
2018-04-14T15:19:20.411Z,32.95
2018-04-14T15:21:48.805Z,33.90
2018-04-14T15:24:17.134Z,31.39
2018-04-14T15:26:45.606Z,32.30
2018-04-14T15:29:13.931Z,32.99
2018-04-14T15:31:42.275Z,34.01
2018-04-14T15:34:10.607Z,34.73
2018-04-14T15:36:39.051Z,34.40
2018-04-14T15:39:07.389Z,35.73
2018-04-14T15:41:35.738Z,34.48
2018-04-14T15:44:04.093Z,34.63
2018-04-14T15:46:32.406Z,35.41
2018-04-14T15:49:00.746Z,34.17
2018-04-14T15:51:29.107Z,36.52
2018-04-14T15:53:57.538Z,36.83
2018-04-14T15:56:25.870Z,34.59
2018-04-14T15:58:54.200Z,35.62
2018-04-14T16:01:22.627Z,35.58
2018-04-14T16:03:51.065Z,36.38
2018-04-14T16:06:19.432Z,34.61
2018-04-14T16:08:47.845Z,36.80
2018-04-14T16:11:16.237Z,35.18
2018-04-14T16:13:44.710Z,34.29
2018-04-14T16:16:13.089Z,34.05
2018-04-14T16:18:41.419Z,35.91
2018-04-14T16:21:09.770Z,37.01
2018-04-14T16:23:38.281Z,36.85
2018-04-14T16:26:06.572Z,36.37
2018-04-14T16:28:34.913Z,36.72
2018-04-14T16:31:03.245Z,37.02
2018-04-14T16:33:31.565Z,37.47
2018-04-14T16:36:00.340Z,39.54
2018-04-14T16:38:28.758Z,37.97
2018-04-14T16:40:57.088Z,38.48
2018-04-14T16:43:25.417Z,38.83
2018-04-14T16:45:53.727Z,39.43
2018-04-14T16:48:22.223Z,41.51
2018-04-14T16:50:50.527Z,40.99
2018-04-14T16:53:19.210Z,42.08
2018-04-14T16:55:47.599Z,42.17
2018-04-14T16:58:15.908Z,42.82
2018-04-14T17:00:44.295Z,42.68
2018-04-14T17:03:12.744Z,43.09
2018-04-14T17:05:41.077Z,41.88
2018-04-14T17:08:09.717Z,43.08
2018-04-14T17:10:39.943Z,42.68
2018-04-14T17:13:08.269Z,42.26
2018-04-14T17:15:36.755Z,42.53
2018-04-14T17:18:05.097Z,42.42
2018-04-14T17:20:33.439Z,42.81
2018-04-14T17:23:01.842Z,43.68
2018-04-14T17:25:30.204Z,43.38
2018-04-14T17:27:58.530Z,43.93
2018-04-14T17:30:26.914Z,43.72
2018-04-14T17:32:55.269Z,43.96
2018-04-14T17:35:23.660Z,45.93
2018-04-14T17:37:52.001Z,45.56
2018-04-14T17:40:20.424Z,46.56
2018-04-14T17:42:48.775Z,48.52
2018-04-14T17:45:17.090Z,47.60
2018-04-14T17:47:45.523Z,49.20
2018-04-14T17:50:13.828Z,49.51
2018-04-14T17:52:42.168Z,49.91
2018-04-14T17:55:10.515Z,50.79
2018-04-14T17:57:38.875Z,51.20
2018-04-14T18:00:07.187Z,52.42
2018-04-14T18:02:35.566Z,51.62
2018-04-14T18:05:03.854Z,52.86
2018-04-14T18:07:32.241Z,54.04
2018-04-14T18:10:00.652Z,54.98
2018-04-14T18:12:29.291Z,55.74
2018-04-14T18:14:57.613Z,55.52
2018-04-14T18:17:25.968Z,56.60
2018-04-14T18:19:54.378Z,57.02
2018-04-14T18:22:22.729Z,57.77
2018-04-14T18:24:51.326Z,58.29
2018-04-14T18:27:19.671Z,57.93
2018-04-14T18:29:48.055Z,58.64
2018-04-14T18:32:16.433Z,58.93
2018-04-14T18:34:44.788Z,59.22
2018-04-14T18:37:13.344Z,59.67
2018-04-14T18:39:41.669Z,59.76
2018-04-14T18:42:10.009Z,59.95
2018-04-14T18:44:38.368Z,60.05
2018-04-14T18:47:06.699Z,62.39
2018-04-14T18:49:35.049Z,61.96
2018-04-14T18:52:03.489Z,62.03
2018-04-14T18:54:31.855Z,62.16
2018-04-14T18:57:00.331Z,60.96
2018-04-14T18:59:28.698Z,61.56
2018-04-14T19:01:57.052Z,61.89
2018-04-14T19:04:25.450Z,62.55
2018-04-14T19:06:53.874Z,61.78
2018-04-14T19:09:22.842Z,63.19
2018-04-14T19:11:51.260Z,63.11
2018-04-14T19:14:19.611Z,64.58
2018-04-14T19:16:48.018Z,64.69
2018-04-14T19:19:16.358Z,65.77
2018-04-14T19:21:44.823Z,65.86
2018-04-14T19:24:13.242Z,66.12
2018-04-14T19:26:41.597Z,67.08
2018-04-14T19:29:09.944Z,66.57
2018-04-14T19:31:38.312Z,66.76
2018-04-14T19:34:06.759Z,67.18
2018-04-14T19:36:35.207Z,65.86
2018-04-14T19:39:03.569Z,65.60
2018-04-14T19:41:31.959Z,67.71
2018-04-14T19:44:00.313Z,67.95
2018-04-14T19:46:28.723Z,68.03
2018-04-14T19:48:57.056Z,69.41
2018-04-14T19:51:25.437Z,69.15
2018-04-14T19:53:53.789Z,69.31
2018-04-14T19:56:22.169Z,69.65
2018-04-14T19:58:50.469Z,70.15
2018-04-14T20:03:46.259Z,70.33
2018-04-14T20:06:14.581Z,69.92
2018-04-14T20:08:42.954Z,69.98
2018-04-14T20:11:11.283Z,70.54
2018-04-14T20:13:39.649Z,70.95
2018-04-14T20:16:08.104Z,70.22
2018-04-14T20:18:36.451Z,69.80
2018-04-14T20:21:04.810Z,69.72
2018-04-14T20:23:33.184Z,71.68
2018-04-14T20:26:01.558Z,71.79
2018-04-14T20:28:30.770Z,71.30
2018-04-14T20:30:59.162Z,71.89
2018-04-14T20:33:27.508Z,71.31
2018-04-14T20:35:55.842Z,70.80
2018-04-14T20:38:24.199Z,71.53
2018-04-14T20:40:52.524Z,72.07
2018-04-14T20:43:20.978Z,72.96
2018-04-14T20:45:49.329Z,73.16
2018-04-14T20:48:17.730Z,72.19
2018-04-14T20:50:46.065Z,71.67
2018-04-14T20:53:14.450Z,71.44
2018-04-14T20:55:42.781Z,70.54
2018-04-14T20:58:11.220Z,70.60
2018-04-14T21:00:39.555Z,70.96
2018-04-14T21:03:07.940Z,70.56
2018-04-14T21:05:36.293Z,70.52
2018-04-14T21:08:04.619Z,71.14
2018-04-14T21:10:32.962Z,70.95
2018-04-14T21:13:01.296Z,72.40
2018-04-14T21:15:29.686Z,73.43
2018-04-14T21:17:58.041Z,72.43
2018-04-14T21:20:26.411Z,73.55
2018-04-14T21:22:55.153Z,74.38
2018-04-14T21:25:23.485Z,72.00
2018-04-14T21:27:51.825Z,71.92
2018-04-14T21:30:20.207Z,72.39
2018-04-14T21:32:48.592Z,73.20
2018-04-14T21:35:16.936Z,73.61
2018-04-14T21:37:45.272Z,73.28
2018-04-14T21:40:13.660Z,73.41
2018-04-14T21:42:42.202Z,72.43
2018-04-14T21:45:10.606Z,73.77
2018-04-14T21:47:38.946Z,73.46
2018-04-14T21:50:07.322Z,75.25
2018-04-14T21:52:35.721Z,72.61
2018-04-14T21:55:04.109Z,74.27
2018-04-14T21:57:32.452Z,73.83
2018-04-14T22:00:00.794Z,73.38
2018-04-14T22:02:29.143Z,74.93
2018-04-14T22:04:57.447Z,73.84
2018-04-14T22:07:25.767Z,74.88
2018-04-14T22:09:54.167Z,75.14
2018-04-14T22:12:22.495Z,74.25
2018-04-14T22:14:50.803Z,75.19
2018-04-14T22:17:19.190Z,75.71
2018-04-14T22:19:47.528Z,74.70
2018-04-14T22:22:15.955Z,73.87
2018-04-14T22:24:44.267Z,73.83
2018-04-14T22:27:12.659Z,74.14
2018-04-14T22:29:40.995Z,75.71
2018-04-14T22:32:09.412Z,75.32
2018-04-14T22:34:37.733Z,75.26
2018-04-14T22:37:06.114Z,75.85
2018-04-14T22:39:34.449Z,76.13
2018-04-14T22:42:02.824Z,75.93
2018-04-14T22:44:31.234Z,76.30
2018-04-14T22:46:59.672Z,76.68
2018-04-14T22:49:28.012Z,76.25
2018-04-14T22:51:56.456Z,77.15
2018-04-14T22:54:24.753Z,76.97
2018-04-14T22:56:53.104Z,76.02
2018-04-14T22:59:21.502Z,77.05
2018-04-14T23:01:49.821Z,77.28
2018-04-14T23:04:18.198Z,77.05
2018-04-14T23:06:46.580Z,76.94
2018-04-14T23:09:14.927Z,77.29
2018-04-14T23:11:43.265Z,77.06
2018-04-14T23:14:11.620Z,77.60
2018-04-14T23:16:40.066Z,76.87
2018-04-14T23:19:08.399Z,77.29
2018-04-14T23:21:36.741Z,77.09
2018-04-14T23:24:05.079Z,77.25
2018-04-14T23:26:33.516Z,78.08
2018-04-14T23:29:01.879Z,77.24
2018-04-14T23:31:30.346Z,77.69
2018-04-14T23:33:58.670Z,77.50
2018-04-14T23:36:27.015Z,77.58
2018-04-14T23:38:55.349Z,77.53
2018-04-14T23:41:23.716Z,78.42
2018-04-14T23:43:52.042Z,78.88
2018-04-14T23:46:20.387Z,78.58
2018-04-14T23:48:49.093Z,78.31
2018-04-14T23:51:17.422Z,79.29
2018-04-14T23:53:45.770Z,79.76
2018-04-14T23:56:14.106Z,80.48
2018-04-14T23:58:42.508Z,80.30
